Time;durP1;ratioP1;P1;durP2;ratioP2;P2;SDS_P1;SDS_P2;PMS_P1;PMS_P2;Temp;Humidity;BMP_temperature;BMP_pressure;BME280_temperature;BME280_humidity;BME280_pressure;Samples;Min_cycle;Max_cycle;Signal;HPM_P1;HPM_P2
2022/05/09 00:01:56;;;;;;;14.18;3.78;;;6.70;99.90;;;;;;5056749;28;20111;-79
2022/05/09 00:04:22;;;;;;;10.85;3.78;;;6.70;99.90;;;;;;5050202;28;20658;-79
2022/05/09 00:06:48;;;;;;;13.23;4.03;;;7.70;99.90;;;;;;5030638;28;20412;-79
2022/05/09 00:09:16;;;;;;;12.75;3.80;;;7.40;99.90;;;;;;5049477;28;20413;-79
2022/05/09 00:11:42;;;;;;;14.13;3.45;;;7.90;99.90;;;;;;5029137;28;20182;-79
2022/05/09 00:14:08;;;;;;;12.18;3.70;;;6.60;99.90;;;;;;5055205;28;20501;-79
2022/05/09 00:16:35;;;;;;;15.15;4.00;;;6.60;99.90;;;;;;5046594;28;20391;-79
2022/05/09 00:19:03;;;;;;;12.57;4.00;;;8.00;99.90;;;;;;5037299;28;20569;-80
2022/05/09 00:21:35;;;;;;;14.15;3.30;;;6.60;99.90;;;;;;5035788;28;20032;-79
2022/05/09 00:24:02;;;;;;;12.60;3.42;;;6.70;99.90;;;;;;5043908;28;20033;-79
2022/05/09 00:26:31;;;;;;;15.95;3.72;;;6.50;99.90;;;;;;5050048;28;20470;-79
2022/05/09 00:28:58;;;;;;;13.80;3.60;;;6.90;99.90;;;;;;5032073;28;20044;-79
2022/05/09 00:31:25;;;;;;;15.68;4.15;;;7.20;99.90;;;;;;5048869;28;20049;-79
2022/05/09 00:33:50;;;;;;;17.95;4.22;;;6.50;99.90;;;;;;5038596;28;20124;-79
2022/05/09 00:36:17;;;;;;;14.63;3.78;;;6.60;99.90;;;;;;5025953;28;20127;-80
2022/05/09 00:38:47;;;;;;;12.90;4.32;;;6.50;99.90;;;;;;5029902;28;20544;-80
2022/05/09 00:41:31;;;;;;;14.05;4.00;;;6.80;99.90;;;;;;5041687;28;20044;-80
2022/05/09 00:44:05;;;;;;;12.35;3.58;;;6.90;99.90;;;;;;5042314;28;20109;-79
2022/05/09 00:46:31;;;;;;;14.15;4.07;;;6.60;99.90;;;;;;5050634;28;20116;-80
2022/05/09 00:49:05;;;;;;;15.13;4.15;;;7.00;99.90;;;;;;5053656;28;20132;-80
2022/05/09 00:51:32;;;;;;;15.40;4.25;;;6.50;99.90;;;;;;5055847;28;20041;-80
2022/05/09 00:54:02;;;;;;;14.02;4.55;;;6.60;99.90;;;;;;5053938;28;20037;-79
2022/05/09 00:56:35;;;;;;;16.25;3.90;;;7.00;99.90;;;;;;5057058;28;20133;-80
2022/05/09 00:59:07;;;;;;;15.02;3.88;;;6.50;99.90;;;;;;5056084;28;20490;-79
2022/05/09 01:01:33;;;;;;;13.23;4.03;;;6.50;99.90;;;;;;5047951;28;20036;-79
2022/05/09 01:03:58;;;;;;;9.07;3.42;;;6.50;99.90;;;;;;5050641;28;20029;-80
2022/05/09 01:06:26;;;;;;;13.30;3.80;;;6.50;99.90;;;;;;5036595;28;20099;-80
2022/05/09 01:08:51;;;;;;;14.23;3.90;;;6.40;99.90;;;;;;5043526;28;20059;-80
2022/05/09 01:11:20;;;;;;;12.82;3.70;;;6.40;99.90;;;;;;5064070;28;20047;-80
2022/05/09 01:13:51;;;;;;;16.38;3.78;;;6.50;99.90;;;;;;5063259;28;20071;-79
2022/05/09 01:16:19;;;;;;;11.90;3.53;;;6.40;99.90;;;;;;5038533;28;20036;-80
2022/05/09 01:18:46;;;;;;;12.80;3.40;;;6.40;99.90;;;;;;5052886;28;20036;-80
2022/05/09 01:21:36;;;;;;;13.95;4.82;;;6.40;99.90;;;;;;5056090;28;20049;-80
2022/05/09 01:24:17;;;;;;;13.63;4.03;;;6.40;99.90;;;;;;5058729;28;20114;-80
2022/05/09 01:26:43;;;;;;;12.77;3.65;;;6.30;99.90;;;;;;5056470;28;20037;-80
2022/05/09 01:29:32;;;;;;;9.98;3.67;;;6.60;99.90;;;;;;5003597;28;20052;-80
2022/05/09 01:31:58;;;;;;;26.25;4.72;;;7.40;99.90;;;;;;5039439;28;20083;-80
2022/05/09 01:34:25;;;;;;;15.55;4.22;;;6.30;99.90;;;;;;5040022;28;20070;-80
2022/05/09 01:36:57;;;;;;;13.50;4.07;;;6.30;99.90;;;;;;5055814;28;20405;-80
2022/05/09 01:39:24;;;;;;;11.25;3.83;;;7.00;99.90;;;;;;5056907;28;20105;-80
2022/05/09 01:41:51;;;;;;;12.82;3.83;;;6.20;99.90;;;;;;5035005;28;20049;-80
2022/05/09 01:44:17;;;;;;;12.68;4.00;;;7.40;99.90;;;;;;5062127;28;20040;-79
2022/05/09 01:49:30;;;;;;;14.45;3.72;;;7.20;99.90;;;;;;5055732;28;20687;-79
2022/05/09 01:52:00;;;;;;;14.38;3.83;;;6.20;99.90;;;;;;5047347;28;20501;-80
2022/05/09 01:54:26;;;;;;;17.33;4.40;;;6.10;99.90;;;;;;5057846;28;20135;-80
2022/05/09 01:56:52;;;;;;;14.30;3.47;;;6.70;99.90;;;;;;5033159;28;20044;-80
2022/05/09 01:59:18;;;;;;;15.25;3.85;;;6.10;99.90;;;;;;5040342;28;20040;-80
2022/05/09 02:01:52;;;;;;;11.98;3.90;;;6.00;99.90;;;;;;5046061;28;20038;-80
2022/05/09 02:04:18;;;;;;;14.18;3.83;;;6.00;99.90;;;;;;5060747;28;20093;-79
2022/05/09 02:06:44;;;;;;;13.27;4.10;;;6.00;99.90;;;;;;5054625;28;20037;-80
2022/05/09 02:09:11;;;;;;;11.23;4.07;;;6.00;99.90;;;;;;5031235;28;20106;-80
2022/05/09 02:11:37;;;;;;;12.25;3.88;;;6.70;99.90;;;;;;5041035;28;20048;-80
2022/05/09 02:14:04;;;;;;;14.82;4.18;;;6.00;99.90;;;;;;5049903;28;20041;-80
2022/05/09 02:16:30;;;;;;;14.20;3.85;;;6.00;99.90;;;;;;5045325;28;20115;-80
2022/05/09 02:18:56;;;;;;;14.63;3.60;;;6.00;99.90;;;;;;5043674;28;20128;-79
2022/05/09 02:21:21;;;;;;;14.00;3.55;;;6.00;99.90;;;;;;5067012;28;20119;-80
2022/05/09 02:23:47;;;;;;;15.50;4.10;;;6.80;99.90;;;;;;5061012;28;20028;-80
2022/05/09 02:26:14;;;;;;;11.70;3.40;;;5.90;99.90;;;;;;5023727;28;20037;-80
2022/05/09 02:28:39;;;;;;;12.10;3.53;;;5.90;99.90;;;;;;5051179;28;20119;-80
2022/05/09 02:31:06;;;;;;;11.70;3.30;;;5.90;99.90;;;;;;5057129;28;20135;-80
2022/05/09 02:33:32;;;;;;;14.55;3.55;;;5.90;99.90;;;;;;5047711;28;20052;-80
2022/05/09 02:35:57;;;;;;;11.68;3.90;;;7.00;99.90;;;;;;5053587;28;20043;-79
2022/05/09 02:38:24;;;;;;;12.40;3.78;;;5.80;99.90;;;;;;5030502;28;20075;-80
2022/05/09 02:40:51;;;;;;;10.75;3.40;;;6.00;99.90;;;;;;5045192;28;20056;-79
2022/05/09 02:43:17;;;;;;;16.80;4.43;;;5.80;99.90;;;;;;5026917;28;20033;-79
2022/05/09 02:45:43;;;;;;;13.90;3.75;;;5.80;99.90;;;;;;5027192;28;20037;-80
2022/05/09 02:48:10;;;;;;;13.18;3.92;;;5.80;99.90;;;;;;5041447;28;20036;-80
2022/05/09 02:50:37;;;;;;;12.75;3.50;;;5.70;99.90;;;;;;5043301;28;20040;-80
2022/05/09 02:53:03;;;;;;;11.27;3.60;;;5.70;99.90;;;;;;5040364;28;20068;-80
2022/05/09 02:55:31;;;;;;;11.27;3.53;;;5.70;99.90;;;;;;5051498;28;20410;-80
2022/05/09 02:57:57;;;;;;;14.00;3.83;;;5.70;99.90;;;;;;5042741;28;20507;-80
2022/05/09 03:00:26;;;;;;;10.15;3.38;;;5.70;99.90;;;;;;5027544;28;20063;-80
2022/05/09 03:05:40;;;;;;;11.30;3.78;;;6.00;99.90;;;;;;5039602;28;20033;-80
2022/05/09 03:08:07;;;;;;;7.72;3.00;;;6.00;99.90;;;;;;5063707;28;20079;-79
2022/05/09 03:10:33;;;;;;;8.93;2.90;;;5.80;99.90;;;;;;5029909;28;20105;-79
2022/05/09 03:13:00;;;;;;;6.60;2.50;;;5.70;99.90;;;;;;5044591;28;20040;-80
2022/05/09 03:15:33;;;;;;;7.03;2.17;;;5.70;99.90;;;;;;5054227;28;20041;-79
2022/05/09 03:17:58;;;;;;;;;;;5.70;99.90;;;;;;5037197;28;20091;-80
2022/05/09 03:20:24;;;;;;;4.90;2.00;;;5.70;99.90;;;;;;5029525;28;20377;-80
2022/05/09 03:22:50;;;;;;;6.35;2.20;;;5.60;99.90;;;;;;5042677;28;20048;-80
2022/05/09 03:25:17;;;;;;;6.85;2.00;;;5.60;99.90;;;;;;5067437;28;20072;-80
2022/05/09 03:27:43;;;;;;;5.43;2.05;;;5.60;99.90;;;;;;5038467;28;20052;-80
2022/05/09 03:30:11;;;;;;;5.75;1.90;;;5.60;99.90;;;;;;5039793;28;20653;-80
2022/05/09 03:32:38;;;;;;;6.32;2.15;;;5.60;99.90;;;;;;5049991;28;20055;-80
2022/05/09 03:35:06;;;;;;;5.18;1.80;;;5.60;99.90;;;;;;5045521;28;20045;-80
2022/05/09 03:37:32;;;;;;;6.32;2.20;;;5.60;99.90;;;;;;5056837;28;20529;-80
2022/05/09 03:39:58;;;;;;;6.65;2.00;;;5.50;99.90;;;;;;5030078;28;20144;-80
2022/05/09 03:42:23;;;;;;;7.65;2.20;;;6.40;99.90;;;;;;5028284;28;20037;-80
2022/05/09 03:44:49;;;;;;;8.40;2.40;;;5.50;99.90;;;;;;5042329;28;20036;-80
2022/05/09 03:47:16;;;;;;;7.20;2.70;;;5.50;99.90;;;;;;5045804;28;20463;-80
2022/05/09 03:49:41;;;;;;;8.82;2.45;;;5.50;99.90;;;;;;5044638;28;20047;-80
2022/05/09 03:52:07;;;;;;;8.52;2.20;;;6.20;99.90;;;;;;5035703;28;20045;-80
2022/05/09 03:54:33;;;;;;;7.18;2.40;;;5.60;99.90;;;;;;5031366;28;20060;-80
2022/05/09 03:56:59;;;;;;;7.40;2.30;;;5.40;99.90;;;;;;5012738;28;20037;-80
2022/05/09 03:59:25;;;;;;;7.65;2.30;;;5.40;99.90;;;;;;5032158;28;20037;-80
2022/05/09 04:01:51;;;;;;;8.02;2.47;;;5.40;99.90;;;;;;5027557;28;20037;-80
2022/05/09 04:04:17;;;;;;;12.77;2.88;;;5.40;99.90;;;;;;5044841;28;20029;-80
2022/05/09 04:06:43;;;;;;;8.45;2.50;;;5.40;99.90;;;;;;5012577;28;20037;-80
2022/05/09 04:09:08;;;;;;;10.75;2.90;;;5.40;99.90;;;;;;5020641;28;20059;-80
2022/05/09 04:11:35;;;;;;;6.93;2.38;;;5.80;99.90;;;;;;5013457;28;20044;-80
2022/05/09 04:14:01;;;;;;;9.57;2.30;;;5.40;99.90;;;;;;5048943;28;20055;-80
2022/05/09 04:19:12;;;;;;;9.18;2.58;;;6.40;99.90;;;;;;5038839;28;20052;-80
2022/05/09 04:21:37;;;;;;;7.90;2.78;;;5.70;99.90;;;;;;5059164;28;20029;-80
2022/05/09 04:24:03;;;;;;;9.80;2.90;;;5.40;99.90;;;;;;5041523;28;20429;-80
2022/05/09 04:26:31;;;;;;;9.98;3.13;;;5.40;99.90;;;;;;5043299;28;20515;-80
2022/05/09 04:28:58;;;;;;;11.75;3.15;;;5.90;99.90;;;;;;5039019;28;20076;-79
2022/05/09 04:31:24;;;;;;;9.80;3.53;;;5.50;99.90;;;;;;5046667;28;20417;-79
2022/05/09 04:33:50;;;;;;;11.07;3.20;;;6.60;99.90;;;;;;5052052;28;20048;-80
2022/05/09 04:36:15;;;;;;;10.63;3.05;;;6.00;99.90;;;;;;5062681;28;20045;-80
2022/05/09 04:38:43;;;;;;;8.60;2.90;;;5.70;99.90;;;;;;5046882;28;20072;-80
2022/05/09 04:41:10;;;;;;;8.85;2.85;;;6.00;99.90;;;;;;5034719;28;20472;-81
2022/05/09 04:43:37;;;;;;;8.50;2.85;;;5.80;99.90;;;;;;5057825;28;20753;-80
2022/05/09 04:46:05;;;;;;;10.02;3.40;;;5.90;99.90;;;;;;5046090;28;20040;-80
2022/05/09 04:48:31;;;;;;;11.30;3.50;;;6.00;99.90;;;;;;5045401;28;20037;-80
2022/05/09 04:50:58;;;;;;;11.45;3.90;;;6.30;99.90;;;;;;5061485;28;20043;-80
2022/05/09 04:53:24;;;;;;;13.20;4.32;;;6.10;99.90;;;;;;5049873;28;20110;-80
2022/05/09 04:55:50;;;;;;;13.23;4.57;;;7.00;99.90;;;;;;5042684;28;20115;-80
2022/05/09 04:58:18;;;;;;;16.80;4.97;;;7.10;99.90;;;;;;5048472;28;20561;-80
2022/05/09 05:00:45;;;;;;;13.77;4.57;;;7.40;99.90;;;;;;5050110;28;20118;-80
2022/05/09 05:03:11;;;;;;;14.38;5.00;;;6.50;99.90;;;;;;5062095;28;20041;-80
2022/05/09 05:05:38;;;;;;;15.52;4.95;;;6.60;99.90;;;;;;5049966;28;20052;-80
2022/05/09 05:08:04;;;;;;;18.10;5.35;;;6.70;99.90;;;;;;5039808;28;20033;-80
2022/05/09 05:10:30;;;;;;;19.80;6.38;;;6.80;99.90;;;;;;5064295;28;20106;-80
2022/05/09 05:12:58;;;;;;;15.07;5.45;;;6.90;99.90;;;;;;5057560;28;20033;-80
2022/05/09 05:15:24;;;;;;;15.30;6.03;;;7.00;99.90;;;;;;5052729;28;20041;-80
2022/05/09 05:17:50;;;;;;;18.58;6.13;;;7.10;99.90;;;;;;5026167;28;20119;-80
2022/05/09 05:20:16;;;;;;;20.42;6.65;;;7.40;99.90;;;;;;5052630;28;20115;-80
2022/05/09 05:22:47;;;;;;;15.82;5.80;;;7.40;99.90;;;;;;5052332;28;20029;-80
2022/05/09 05:25:13;;;;;;;19.35;6.18;;;7.40;99.90;;;;;;5038252;28;20059;-80
2022/05/09 05:27:39;;;;;;;19.02;6.22;;;8.30;99.90;;;;;;5024222;28;20045;-80
2022/05/09 05:30:06;;;;;;;14.15;5.75;;;7.50;99.90;;;;;;5042598;28;20047;-80
2022/05/09 05:32:36;;;;;;;20.13;6.25;;;7.60;99.90;;;;;;5050757;28;20122;-81
2022/05/09 05:35:05;;;;;;;16.48;5.55;;;8.10;99.90;;;;;;5065361;28;20055;-80
2022/05/09 05:37:32;;;;;;;17.50;6.03;;;7.90;99.90;;;;;;5059046;28;20098;-80
2022/05/09 05:39:58;;;;;;;15.48;5.60;;;8.00;99.90;;;;;;5051945;28;20048;-81
2022/05/09 05:42:24;;;;;;;15.25;5.20;;;8.30;99.90;;;;;;5051119;28;20098;-80
2022/05/09 05:44:50;;;;;;;14.75;5.47;;;8.10;99.90;;;;;;5053888;28;20041;-80
2022/05/09 05:47:19;;;;;;;13.65;5.15;;;8.20;99.90;;;;;;5053594;28;20040;-80
2022/05/09 05:49:45;;;;;;;13.73;5.82;;;8.40;99.90;;;;;;5050614;28;20282;-80
2022/05/09 05:52:12;;;;;;;15.73;5.95;;;8.50;99.90;;;;;;5070183;28;20040;-80
2022/05/09 05:54:40;;;;;;;16.05;5.97;;;9.10;99.90;;;;;;5070261;28;20055;-80
2022/05/09 05:57:25;;;;;;;13.63;5.55;;;9.50;99.90;;;;;;5070163;28;20041;-80
2022/05/09 05:59:55;;;;;;;20.95;6.68;;;8.90;99.90;;;;;;5052574;28;20202;-80
2022/05/09 06:02:23;;;;;;;20.38;6.20;;;9.20;99.90;;;;;;5052347;28;20028;-81
2022/05/09 06:04:49;;;;;;;17.00;5.88;;;9.40;99.90;;;;;;5069883;28;20083;-81
2022/05/09 06:07:15;;;;;;;19.42;6.40;;;9.50;99.90;;;;;;5062165;28;20540;-80
2022/05/09 06:09:44;;;;;;;16.27;6.03;;;9.70;99.90;;;;;;5033999;28;20047;-80
2022/05/09 06:12:11;;;;;;;17.75;5.70;;;9.80;99.90;;;;;;5069894;28;20383;-81
2022/05/09 06:14:38;;;;;;;16.88;6.18;;;10.00;99.90;;;;;;5053051;28;20036;-80
2022/05/09 06:17:08;;;;;;;16.60;6.05;;;10.30;99.90;;;;;;5033465;28;20044;-80
2022/05/09 06:19:35;;;;;;;15.93;6.07;;;10.30;99.90;;;;;;5051772;28;20037;-80
2022/05/09 06:22:01;;;;;;;14.75;5.15;;;10.40;99.90;;;;;;5032915;28;20090;-80
2022/05/09 06:24:27;;;;;;;14.35;5.82;;;10.50;99.90;;;;;;5050137;28;20051;-80
2022/05/09 06:26:53;;;;;;;18.65;6.85;;;10.60;99.90;;;;;;5047715;28;20064;-80
2022/05/09 06:29:18;;;;;;;17.17;6.22;;;10.70;99.90;;;;;;5040891;28;20072;-81
2022/05/09 06:31:45;;;;;;;15.32;5.97;;;10.80;99.90;;;;;;5038404;28;20056;-81
2022/05/09 06:34:13;;;;;;;19.77;6.03;;;10.90;99.90;;;;;;5041054;28;20045;-83
2022/05/09 06:36:40;;;;;;;20.58;6.50;;;11.10;99.90;;;;;;5031006;28;20044;-82
2022/05/09 06:39:07;;;;;;;16.30;5.85;;;11.20;99.90;;;;;;5059543;28;20049;-81
2022/05/09 06:41:33;;;;;;;15.15;5.90;;;11.40;99.90;;;;;;5056436;28;20032;-82
2022/05/09 06:43:59;;;;;;;14.82;5.50;;;11.50;99.90;;;;;;5043522;28;20040;-81
2022/05/09 06:46:25;;;;;;;17.30;5.70;;;11.70;99.90;;;;;;5049863;28;20070;-82
2022/05/09 06:48:51;;;;;;;14.38;5.53;;;11.70;99.90;;;;;;5045737;28;20043;-82
2022/05/09 06:51:16;;;;;;;14.93;5.05;;;11.90;99.90;;;;;;5055371;28;20045;-82
2022/05/09 06:53:44;;;;;;;18.42;5.65;;;12.00;99.90;;;;;;5031732;28;20036;-82
2022/05/09 06:56:10;;;;;;;18.40;6.15;;;12.10;99.90;;;;;;5032393;28;20163;-82
2022/05/09 06:58:36;;;;;;;15.95;5.47;;;12.20;99.90;;;;;;5041887;28;20137;-82
2022/05/09 07:01:18;;;;;;;20.35;5.50;;;12.30;99.90;;;;;;5040566;28;20190;-82
2022/05/09 07:03:45;;;;;;;19.23;6.18;;;12.50;99.90;;;;;;5046227;28;20052;-82
2022/05/09 07:06:11;;;;;;;15.10;5.53;;;12.40;99.90;;;;;;5042219;28;20124;-81
2022/05/09 07:08:37;;;;;;;20.00;6.05;;;12.70;99.90;;;;;;5037103;28;20194;-81
2022/05/09 07:11:04;;;;;;;14.90;5.00;;;12.80;99.90;;;;;;5031615;28;20059;-81
2022/05/09 07:13:30;;;;;;;18.20;5.05;;;12.90;99.90;;;;;;5040017;28;20041;-81
2022/05/09 07:15:57;;;;;;;15.60;4.88;;;13.10;99.90;;;;;;5046359;28;20275;-83
2022/05/09 07:18:27;;;;;;;15.02;4.63;;;13.20;99.90;;;;;;5031628;28;20029;-82
2022/05/09 07:20:53;;;;;;;15.52;5.53;;;13.50;99.90;;;;;;5050064;28;20029;-81
2022/05/09 07:23:19;;;;;;;15.55;4.53;;;13.40;99.90;;;;;;5063731;28;20422;-82
2022/05/09 07:25:45;;;;;;;14.70;4.72;;;13.50;99.90;;;;;;5047318;28;20046;-82
2022/05/09 07:28:13;;;;;;;18.35;5.20;;;13.60;99.90;;;;;;5035376;28;20067;-82
2022/05/09 07:30:41;;;;;;;16.02;4.85;;;13.70;99.90;;;;;;5029868;28;20040;-82
2022/05/09 07:33:10;;;;;;;14.77;4.63;;;13.80;99.90;;;;;;5042221;28;20490;-81
2022/05/09 07:35:35;;;;;;;13.18;4.82;;;13.90;99.90;;;;;;5040202;28;20124;-82
2022/05/09 07:38:01;;;;;;;14.43;4.75;;;14.00;99.90;;;;;;5015014;28;20116;-82
2022/05/09 07:40:27;;;;;;;14.48;4.93;;;14.00;99.90;;;;;;5008892;28;20310;-83
2022/05/09 07:42:52;;;;;;;15.65;4.55;;;14.00;99.90;;;;;;5020317;28;20044;-81
2022/05/09 07:45:19;;;;;;;15.68;4.90;;;14.10;99.90;;;;;;5045321;28;20040;-82
2022/05/09 07:47:46;;;;;;;17.48;5.35;;;14.20;99.90;;;;;;5062161;28;20103;-82
2022/05/09 07:50:14;;;;;;;14.73;4.57;;;14.30;99.90;;;;;;5063170;28;20048;-82
2022/05/09 07:52:42;;;;;;;17.90;5.43;;;14.40;99.90;;;;;;5021781;28;20033;-83
2022/05/09 07:55:12;;;;;;;16.60;4.75;;;14.40;99.90;;;;;;5044145;28;20493;-82
2022/05/09 07:57:38;;;;;;;17.42;4.88;;;14.40;99.90;;;;;;5033688;28;20535;-81
2022/05/09 08:00:05;;;;;;;14.55;4.90;;;14.50;99.90;;;;;;5022088;28;20037;-82
2022/05/09 08:02:32;;;;;;;15.10;4.78;;;14.60;99.90;;;;;;5049183;28;20033;-82
2022/05/09 08:04:58;;;;;;;16.25;5.10;;;14.70;99.90;;;;;;5033543;28;20442;-82
2022/05/09 08:07:24;;;;;;;16.20;5.40;;;14.80;99.90;;;;;;5063470;28;20488;-82
2022/05/09 08:09:50;;;;;;;14.23;4.63;;;14.90;99.90;;;;;;5047489;28;20044;-82
2022/05/09 08:12:16;;;;;;;15.82;4.35;;;15.00;99.90;;;;;;5031560;28;20036;-83
2022/05/09 08:14:43;;;;;;;14.90;4.88;;;15.10;99.90;;;;;;5034486;28;20090;-83
2022/05/09 08:17:09;;;;;;;13.43;4.22;;;15.20;99.90;;;;;;5031851;28;20069;-82
2022/05/09 08:19:37;;;;;;;14.57;4.55;;;15.30;99.90;;;;;;5050678;28;20040;-83
2022/05/09 08:22:04;;;;;;;15.30;4.90;;;15.40;99.90;;;;;;5051211;28;20094;-82
2022/05/09 08:24:30;;;;;;;12.80;4.10;;;15.40;99.90;;;;;;5037530;28;20036;-82
2022/05/09 08:26:56;;;;;;;15.32;4.20;;;15.40;99.90;;;;;;5051348;28;20043;-82
2022/05/09 08:29:22;;;;;;;16.95;4.38;;;15.50;99.90;;;;;;5032419;28;20037;-83
2022/05/09 08:31:48;;;;;;;15.32;4.07;;;15.70;99.90;;;;;;5026667;28;20121;-83
2022/05/09 08:34:15;;;;;;;15.35;4.40;;;15.80;99.90;;;;;;5032302;28;20051;-81
2022/05/09 08:36:48;;;;;;;14.13;3.70;;;15.90;99.90;;;;;;5038552;28;20086;-82
2022/05/09 08:39:14;;;;;;;;;;;16.00;99.90;;;;;;5034388;28;20044;-83
2022/05/09 08:41:55;;;;;;;17.35;4.13;;;16.10;99.90;;;;;;5038166;28;19970;-83
2022/05/09 08:44:48;;;;;;;16.42;4.03;;;16.20;99.90;;;;;;5042891;28;20033;-83
2022/05/09 08:47:25;;;;;;;11.60;3.80;;;16.50;99.90;;;;;;5046828;28;20462;-82
2022/05/09 08:49:51;;;;;;;12.45;3.67;;;16.60;99.90;;;;;;5044121;28;20195;-83
2022/05/09 08:52:25;;;;;;;13.00;3.85;;;16.60;99.90;;;;;;5048507;28;20202;-82
2022/05/09 08:54:53;;;;;;;13.40;3.92;;;16.70;99.90;;;;;;5071172;28;20119;-81
2022/05/09 08:57:39;;;;;;;13.45;4.03;;;16.80;99.90;;;;;;5060233;28;20032;-81
2022/05/09 09:00:10;;;;;;;15.98;4.18;;;17.00;99.90;;;;;;5058438;28;20397;-81
2022/05/09 09:02:48;;;;;;;13.10;3.80;;;17.00;99.90;;;;;;5055716;28;20044;-81
2022/05/09 09:05:21;;;;;;;13.63;3.78;;;17.10;99.90;;;;;;5057393;28;20045;-82
2022/05/09 09:08:09;;;;;;;12.57;3.53;;;17.20;99.90;;;;;;5061168;28;20397;-82
2022/05/09 09:10:43;;;;;;;12.45;3.17;;;17.20;99.90;;;;;;5043661;28;20032;-82
2022/05/09 09:13:23;;;;;;;13.40;3.20;;;17.30;99.90;;;;;;5051213;28;20048;-81
2022/05/09 09:15:58;;;;;;;12.43;3.40;;;17.40;99.90;;;;;;5057406;28;20044;-83
2022/05/09 09:18:44;;;;;;;14.95;3.53;;;17.40;99.90;;;;;;5048745;28;20033;-82
2022/05/09 09:21:15;;;;;;;11.77;3.40;;;17.50;99.90;;;;;;5051346;28;20037;-83
2022/05/09 09:23:47;;;;;;;9.98;3.05;;;17.60;99.90;;;;;;5043244;28;20057;-83
2022/05/09 09:26:50;;;;;;;14.13;3.45;;;17.70;99.90;;;;;;5048160;28;20048;-82
2022/05/09 09:29:31;;;;;;;11.00;3.42;;;17.80;99.90;;;;;;5048520;28;20041;-82
2022/05/09 09:32:10;;;;;;;12.20;3.25;;;17.90;99.90;;;;;;5045287;28;20078;-81
2022/05/09 09:34:57;;;;;;;13.75;3.40;;;18.00;99.90;;;;;;5064175;28;20052;-83
2022/05/09 09:37:36;;;;;;;14.00;3.25;;;18.00;99.90;;;;;;5052476;28;20583;-82
2022/05/09 09:40:05;;;;;;;13.82;3.30;;;18.10;99.90;;;;;;5040918;28;20037;-82
2022/05/09 09:42:31;;;;;;;9.02;3.05;;;18.20;99.90;;;;;;5050332;28;20508;-83
2022/05/09 09:45:00;;;;;;;9.88;3.17;;;18.30;99.90;;;;;;5038393;28;20112;-82
2022/05/09 09:47:27;;;;;;;12.00;2.65;;;18.40;99.90;;;;;;5061228;28;20224;-82
2022/05/09 09:50:29;;;;;;;13.15;3.63;;;18.40;99.90;;;;;;5040494;28;20033;-83
2022/05/09 09:52:57;;;;;;;11.90;3.08;;;18.40;96.80;;;;;;5026806;28;20040;-82
2022/05/09 09:55:27;;;;;;;13.23;2.92;;;18.40;99.90;;;;;;5060216;28;20072;-82
2022/05/09 09:57:55;;;;;;;10.43;3.22;;;18.50;99.90;;;;;;5040100;28;20417;-81
2022/05/09 10:00:29;;;;;;;10.20;3.13;;;18.60;99.90;;;;;;5041793;28;20044;-82
2022/05/09 10:03:13;;;;;;;12.40;3.17;;;18.70;99.90;;;;;;5056441;28;20612;-81
2022/05/09 10:05:41;;;;;;;9.85;2.67;;;18.70;99.90;;;;;;5065839;28;20047;-81
2022/05/09 10:08:22;;;;;;;10.07;3.08;;;18.80;99.90;;;;;;5049638;28;20048;-81
2022/05/09 10:11:12;;;;;;;11.25;3.05;;;18.90;99.70;;;;;;5057744;28;20040;-82
2022/05/09 10:13:38;;;;;;;9.73;2.70;;;19.00;98.80;;;;;;5053640;28;20459;-82
2022/05/09 10:16:33;;;;;;;10.30;3.00;;;19.10;99.90;;;;;;5044534;28;21505;-82
2022/05/09 10:19:06;;;;;;;11.48;3.17;;;19.10;94.10;;;;;;5053239;28;20043;-81
2022/05/09 10:27:28;;;;;;;13.48;2.95;;;19.40;95.50;;;;;;5068850;28;20067;-81
2022/05/09 10:30:00;;;;;;;11.00;3.17;;;19.50;92.80;;;;;;5042260;28;20036;-81
2022/05/09 10:32:30;;;;;;;10.98;3.10;;;19.50;92.30;;;;;;5054738;28;20067;-81
2022/05/09 10:35:05;;;;;;;13.07;3.08;;;19.50;90.50;;;;;;5042173;28;20072;-82
2022/05/09 10:37:50;;;;;;;11.55;3.00;;;19.60;90.80;;;;;;5044712;28;20241;-82
2022/05/09 10:40:26;;;;;;;11.23;3.00;;;19.70;90.30;;;;;;5043559;28;20044;-82
2022/05/09 10:43:25;;;;;;;12.23;3.40;;;19.70;87.00;;;;;;5048280;28;20233;-82
2022/05/09 10:45:52;;;;;;;9.32;2.85;;;19.80;85.00;;;;;;5058873;28;20116;-82
2022/05/09 10:48:38;;;;;;;14.18;3.15;;;19.90;84.50;;;;;;5048730;28;20044;-82
2022/05/09 10:51:03;;;;;;;10.88;2.65;;;20.00;84.60;;;;;;5038559;28;20044;-82
2022/05/09 10:53:34;;;;;;;9.15;2.90;;;20.10;84.60;;;;;;5037342;28;20040;-81
2022/05/09 10:56:18;;;;;;;11.68;2.63;;;20.20;83.70;;;;;;5041938;28;20036;-81
2022/05/09 10:59:16;;;;;;;9.43;2.80;;;20.20;81.50;;;;;;5033590;28;20050;-81
2022/05/09 11:02:07;;;;;;;11.05;3.00;;;20.40;79.80;;;;;;5037123;28;20203;-81
2022/05/09 11:04:36;;;;;;;10.45;3.10;;;20.50;83.80;;;;;;5040866;28;20029;-82
2022/05/09 11:07:25;;;;;;;10.75;2.83;;;20.60;83.40;;;;;;5048683;28;20049;-81
2022/05/09 11:10:00;;;;;;;9.77;2.90;;;20.60;79.40;;;;;;5054962;28;20065;-82
2022/05/09 11:12:37;;;;;;;10.10;2.95;;;20.60;80.50;;;;;;5043778;28;20044;-83
2022/05/09 11:15:17;;;;;;;10.27;2.78;;;20.60;81.10;;;;;;5046462;28;20516;-82
2022/05/09 11:17:49;;;;;;;12.02;3.20;;;20.70;81.30;;;;;;5047188;28;20051;-81
2022/05/09 11:20:29;;;;;;;9.63;2.60;;;20.80;83.10;;;;;;5041320;28;20044;-81
2022/05/09 11:23:05;;;;;;;11.30;2.97;;;20.90;83.80;;;;;;5055590;28;20039;-81
2022/05/09 11:25:48;;;;;;;9.50;2.40;;;21.00;80.70;;;;;;5036393;28;20036;-80
2022/05/09 11:28:29;;;;;;;11.85;2.90;;;21.00;78.30;;;;;;5043115;28;20040;-81
2022/05/09 11:31:36;;;;;;;11.23;2.60;;;21.10;81.10;;;;;;5049268;28;20048;-80
2022/05/09 11:34:23;;;;;;;11.15;2.55;;;21.20;80.00;;;;;;5050688;28;20427;-81
2022/05/09 11:37:25;;;;;;;11.13;2.78;;;21.20;82.50;;;;;;5040992;28;20051;-82
2022/05/09 11:40:02;;;;;;;10.18;2.50;;;21.30;81.00;;;;;;5053965;28;20146;-81
2022/05/09 11:45:58;;;;;;;8.77;2.42;;;21.50;80.10;;;;;;5061033;28;20091;-81
2022/05/09 11:48:30;;;;;;;10.98;2.88;;;21.50;80.30;;;;;;5061755;28;20044;-81
2022/05/09 11:51:09;;;;;;;13.77;3.35;;;21.50;76.10;;;;;;5046258;28;20029;-81
2022/05/09 11:53:41;;;;;;;9.93;2.65;;;21.50;77.40;;;;;;5062407;28;20489;-81
2022/05/09 11:56:07;;;;;;;12.13;2.67;;;21.50;76.90;;;;;;5043265;28;20036;-82
2022/05/09 11:58:37;;;;;;;10.40;2.67;;;21.60;77.00;;;;;;5015902;28;20044;-82
2022/05/09 12:01:03;;;;;;;10.77;2.70;;;21.70;77.60;;;;;;5061166;28;20129;-82
2022/05/09 12:03:41;;;;;;;12.52;2.80;;;21.80;76.90;;;;;;5030071;28;20036;-82
2022/05/09 12:06:31;;;;;;;11.32;2.90;;;21.80;76.30;;;;;;5059875;28;20382;-82
2022/05/09 12:08:58;;;;;;;11.70;2.50;;;21.80;75.90;;;;;;5055255;28;20455;-82
2022/05/09 12:11:29;;;;;;;10.63;2.70;;;21.80;76.90;;;;;;5043529;28;20077;-81
2022/05/09 12:13:57;;;;;;;9.90;2.80;;;21.90;76.90;;;;;;5067189;28;20480;-82
2022/05/09 12:16:35;;;;;;;9.93;2.65;;;22.00;76.60;;;;;;5052759;28;20041;-82
2022/05/09 12:19:11;;;;;;;11.73;2.70;;;22.10;76.00;;;;;;5039311;28;20043;-81
2022/05/09 12:21:37;;;;;;;10.13;2.80;;;22.20;76.50;;;;;;5049365;28;20040;-82
2022/05/09 12:24:10;;;;;;;13.30;2.97;;;22.40;76.40;;;;;;5038104;28;20085;-81
2022/05/09 12:26:39;;;;;;;9.60;2.60;;;22.40;72.70;;;;;;5048428;28;20044;-82
2022/05/09 12:29:28;;;;;;;10.40;2.63;;;22.50;73.90;;;;;;5057659;28;20047;-82
2022/05/09 12:32:00;;;;;;;9.68;2.67;;;22.70;74.90;;;;;;5042196;28;20051;-83
2022/05/09 12:34:36;;;;;;;10.55;2.80;;;22.70;72.90;;;;;;5044052;28;20060;-82
2022/05/09 12:37:03;;;;;;;9.65;2.53;;;22.60;70.90;;;;;;5042823;28;20048;-81
2022/05/09 12:39:34;;;;;;;10.00;2.42;;;22.60;73.40;;;;;;5032815;28;20095;-82
2022/05/09 12:42:02;;;;;;;8.27;2.53;;;22.70;72.60;;;;;;5039465;28;20493;-81
2022/05/09 12:44:43;;;;;;;11.98;2.90;;;22.70;72.90;;;;;;5038854;28;20179;-83
2022/05/09 12:47:13;;;;;;;11.38;2.60;;;23.00;71.60;;;;;;5045397;28;20404;-82
2022/05/09 12:49:49;;;;;;;10.70;2.53;;;22.90;71.80;;;;;;5051618;28;20082;-82
2022/05/09 12:52:22;;;;;;;10.90;2.60;;;23.10;71.20;;;;;;5051483;28;20504;-82
2022/05/09 12:57:35;;;;;;;9.25;2.30;;;23.20;69.70;;;;;;5061541;28;20439;-82
2022/05/09 13:00:10;;;;;;;9.45;2.30;;;23.10;72.10;;;;;;5035811;28;20102;-82
2022/05/09 13:02:36;;;;;;;7.72;2.20;;;23.20;73.00;;;;;;5053072;28;20037;-82
2022/05/09 13:05:03;;;;;;;8.70;2.60;;;23.20;71.60;;;;;;5062377;28;20040;-82
2022/05/09 13:07:29;;;;;;;10.38;2.28;;;23.20;70.00;;;;;;5061145;28;20029;-82
2022/05/09 13:09:55;;;;;;;9.63;2.55;;;23.30;69.70;;;;;;5032113;28;20033;-82
2022/05/09 13:12:29;;;;;;;6.40;2.00;;;23.40;69.10;;;;;;5045277;28;20028;-82
2022/05/09 13:15:06;;;;;;;11.20;2.80;;;23.50;70.70;;;;;;5060032;28;20044;-82
2022/05/09 13:17:38;;;;;;;10.88;2.42;;;23.60;69.70;;;;;;5054474;28;20036;-82
2022/05/09 13:20:09;;;;;;;8.43;2.10;;;23.60;68.90;;;;;;5057919;28;20111;-81